createdAt,value
2022-08-10T00:01:53.078Z,100.00
2022-08-10T00:04:22.718Z,100.00
2022-08-10T00:06:52.467Z,100.00
2022-08-10T00:09:20.339Z,100.00
2022-08-10T00:11:48.248Z,100.00
2022-08-10T00:14:16.615Z,100.00
2022-08-10T00:16:44.493Z,100.00
2022-08-10T00:19:16.457Z,100.00
2022-08-10T00:21:45.885Z,100.00
2022-08-10T00:24:13.851Z,100.00
2022-08-10T00:27:58.806Z,100.00
2022-08-10T00:29:29.882Z,100.00
2022-08-10T00:31:59.000Z,100.00
2022-08-10T00:34:28.880Z,100.00
2022-08-10T00:36:57.171Z,100.00
2022-08-10T00:39:26.075Z,100.00
2022-08-10T00:42:07.005Z,100.00
2022-08-10T00:44:37.200Z,100.00
2022-08-10T00:47:05.369Z,100.00
2022-08-10T00:49:34.948Z,100.00
2022-08-10T00:52:03.805Z,100.00
2022-08-10T00:54:32.347Z,100.00
2022-08-10T00:57:15.696Z,100.00
2022-08-10T00:59:58.446Z,100.00
2022-08-10T01:02:28.516Z,100.00
2022-08-10T01:05:02.094Z,100.00
2022-08-10T01:07:49.203Z,100.00
2022-08-10T01:10:28.309Z,100.00
2022-08-10T01:13:05.347Z,100.00
2022-08-10T01:15:41.209Z,100.00
2022-08-10T01:18:14.485Z,100.00
2022-08-10T01:20:58.652Z,100.00
2022-08-10T01:24:06.569Z,100.00
2022-08-10T01:26:57.949Z,100.00
2022-08-10T01:29:56.417Z,100.00
2022-08-10T01:32:37.299Z,100.00
2022-08-10T01:35:14.170Z,100.00
2022-08-10T01:37:52.066Z,100.00
2022-08-10T01:40:25.153Z,100.00
2022-08-10T01:42:55.565Z,100.00
2022-08-10T01:45:44.583Z,100.00
2022-08-10T01:48:30.931Z,100.00
2022-08-10T01:51:05.713Z,100.00
2022-08-10T01:53:41.600Z,100.00
2022-08-10T01:56:12.548Z,100.00
2022-08-10T01:58:42.002Z,100.00
2022-08-10T02:01:16.720Z,100.00
2022-08-10T02:04:05.134Z,100.00
2022-08-10T02:06:36.740Z,100.00
2022-08-10T02:09:07.551Z,100.00
2022-08-10T02:11:55.900Z,100.00
2022-08-10T02:14:33.584Z,100.00
2022-08-10T02:17:07.522Z,100.00
2022-08-10T02:19:40.154Z,100.00
2022-08-10T02:22:38.228Z,100.00
2022-08-10T02:25:01.419Z,100.00
2022-08-10T02:27:30.733Z,100.00
2022-08-10T02:29:59.078Z,100.00
2022-08-10T02:32:36.341Z,100.00
2022-08-10T02:35:14.771Z,100.00
2022-08-10T02:37:52.329Z,100.00
2022-08-10T02:42:18.050Z,100.00
2022-08-10T02:45:18.929Z,100.00
2022-08-10T02:46:10.532Z,100.00
2022-08-10T02:48:44.495Z,100.00
2022-08-10T02:51:17.073Z,100.00
2022-08-10T02:53:56.689Z,100.00
2022-08-10T02:56:33.206Z,100.00
2022-08-10T02:59:13.007Z,100.00
2022-08-10T03:01:44.371Z,100.00
2022-08-10T03:04:19.602Z,100.00
2022-08-10T03:07:11.399Z,100.00
2022-08-10T03:09:42.010Z,100.00
2022-08-10T03:12:36.609Z,100.00
2022-08-10T03:15:02.631Z,100.00
2022-08-10T03:17:31.254Z,100.00
2022-08-10T03:20:34.944Z,100.00
2022-08-10T03:22:52.496Z,100.00
2022-08-10T03:25:23.093Z,100.00
2022-08-10T03:27:52.505Z,100.00
2022-08-10T03:30:32.021Z,100.00
2022-08-10T03:33:03.841Z,100.00
2022-08-10T03:35:33.660Z,100.00
2022-08-10T03:38:03.658Z,100.00
2022-08-10T03:40:45.326Z,100.00
2022-08-10T03:43:18.473Z,100.00
2022-08-10T03:45:54.756Z,100.00
2022-08-10T03:48:24.713Z,100.00
2022-08-10T03:51:03.129Z,100.00
2022-08-10T03:54:05.427Z,100.00
2022-08-10T03:56:29.506Z,100.00
2022-08-10T03:58:59.664Z,100.00
2022-08-10T04:02:41.727Z,100.00
2022-08-10T04:04:23.300Z,100.00
2022-08-10T04:06:54.871Z,100.00
2022-08-10T04:09:24.727Z,100.00
2022-08-10T04:11:57.725Z,100.00
2022-08-10T04:14:47.608Z,100.00
2022-08-10T04:17:14.243Z,100.00
2022-08-10T04:19:46.873Z,100.00
2022-08-10T04:22:19.178Z,100.00
2022-08-10T04:24:49.519Z,100.00
2022-08-10T04:27:18.238Z,100.00
2022-08-10T04:29:47.497Z,100.00
2022-08-10T04:32:18.366Z,100.00
2022-08-10T04:34:47.994Z,100.00
2022-08-10T04:37:20.527Z,100.00
2022-08-10T04:39:48.746Z,100.00
2022-08-10T04:42:17.565Z,100.00
2022-08-10T04:44:46.119Z,100.00
2022-08-10T04:47:13.962Z,100.00
2022-08-10T04:49:55.977Z,100.00
2022-08-10T04:52:26.521Z,100.00
2022-08-10T04:54:54.368Z,100.00
2022-08-10T04:57:22.219Z,100.00
2022-08-10T04:59:50.427Z,100.00
2022-08-10T05:02:29.771Z,100.00
2022-08-10T05:05:00.332Z,100.00
2022-08-10T05:07:29.606Z,100.00
2022-08-10T05:10:02.996Z,100.00
2022-08-10T05:12:36.347Z,100.00
2022-08-10T05:15:07.534Z,100.00
2022-08-10T05:17:36.213Z,100.00
2022-08-10T05:20:07.434Z,100.00
2022-08-10T05:22:40.422Z,100.00
2022-08-10T05:25:10.781Z,100.00
2022-08-10T05:28:06.531Z,100.00
2022-08-10T05:30:35.319Z,100.00
2022-08-10T05:33:08.088Z,100.00
2022-08-10T05:35:55.362Z,100.00
2022-08-10T05:38:30.358Z,100.00
2022-08-10T05:40:58.685Z,100.00
2022-08-10T05:43:27.013Z,100.00
2022-08-10T05:46:17.901Z,100.00
2022-08-10T05:48:59.012Z,100.00
2022-08-10T05:51:29.852Z,100.00
2022-08-10T05:54:04.946Z,100.00
2022-08-10T05:56:56.662Z,100.00
2022-08-10T06:00:10.049Z,100.00
2022-08-10T06:02:33.929Z,100.00
2022-08-10T06:05:08.885Z,100.00
2022-08-10T06:07:41.445Z,100.00
2022-08-10T06:10:31.135Z,100.00
2022-08-10T06:13:30.780Z,100.00
2022-08-10T06:16:06.650Z,100.00
2022-08-10T06:18:37.465Z,100.00
2022-08-10T06:21:06.458Z,100.00
2022-08-10T06:23:36.309Z,100.00
2022-08-10T06:26:13.404Z,100.00
2022-08-10T06:29:02.378Z,100.00
2022-08-10T06:31:47.877Z,99.86
2022-08-10T06:34:21.442Z,98.38
2022-08-10T06:36:50.155Z,98.93
2022-08-10T06:39:35.376Z,97.59
2022-08-10T06:42:17.868Z,94.74
2022-08-10T06:44:53.527Z,96.20
2022-08-10T06:47:25.185Z,96.17
2022-08-10T06:49:59.628Z,95.72
2022-08-10T06:52:31.805Z,95.37
2022-08-10T06:55:01.553Z,94.38
2022-08-10T06:57:37.943Z,94.18
2022-08-10T07:00:08.626Z,90.77
2022-08-10T07:02:45.086Z,89.58
2022-08-10T07:05:18.173Z,87.71
2022-08-10T07:07:48.571Z,82.93
2022-08-10T07:10:19.674Z,82.35
2022-08-10T07:12:51.342Z,79.51
2022-08-10T07:15:20.643Z,75.32
2022-08-10T07:17:50.110Z,76.41
2022-08-10T07:20:20.165Z,77.27
2022-08-10T07:23:22.682Z,73.88
2022-08-10T07:25:40.633Z,74.78
2022-08-10T07:28:11.927Z,74.53
2022-08-10T07:30:41.930Z,74.59
2022-08-10T07:33:11.002Z,73.73
2022-08-10T07:35:42.900Z,73.56
2022-08-10T07:38:19.719Z,73.21
2022-08-10T07:40:49.827Z,71.04
2022-08-10T07:43:24.322Z,70.29
2022-08-10T07:45:52.418Z,70.81
2022-08-10T07:48:26.566Z,70.84
2022-08-10T07:50:59.280Z,71.26
2022-08-10T07:53:30.507Z,72.98
2022-08-10T07:56:05.800Z,73.51
2022-08-10T07:58:51.650Z,69.37
2022-08-10T08:01:24.795Z,68.08
2022-08-10T08:04:10.793Z,67.99
2022-08-10T08:06:41.271Z,67.37
2022-08-10T08:09:10.132Z,67.74
2022-08-10T08:11:40.374Z,66.91
2022-08-10T08:14:10.704Z,67.08
2022-08-10T08:16:42.742Z,67.26
2022-08-10T08:19:28.411Z,67.07
2022-08-10T08:24:09.602Z,65.83
2022-08-10T08:24:52.077Z,66.40
2022-08-10T08:27:22.125Z,65.61
2022-08-10T08:29:53.258Z,64.57
2022-08-10T08:32:24.405Z,65.38
2022-08-10T08:34:57.446Z,64.38
2022-08-10T08:38:32.851Z,64.33
2022-08-10T08:40:17.917Z,63.37
2022-08-10T08:43:05.934Z,62.55
2022-08-10T08:46:00.639Z,62.91
2022-08-10T08:48:54.648Z,61.16
2022-08-10T08:52:07.220Z,61.12
2022-08-10T08:54:35.058Z,61.49
2022-08-10T08:57:09.242Z,59.98
2022-08-10T08:59:52.240Z,58.59
2022-08-10T09:02:35.039Z,58.67
2022-08-10T09:05:21.202Z,59.89
2022-08-10T09:08:04.594Z,57.62
2022-08-10T09:10:41.806Z,57.45
2022-08-10T09:13:17.815Z,57.02
2022-08-10T09:16:00.040Z,57.64
2022-08-10T09:18:40.498Z,57.24
2022-08-10T09:21:17.029Z,56.63
2022-08-10T09:24:04.646Z,55.24
2022-08-10T09:26:43.914Z,55.59
2022-08-10T09:29:16.408Z,54.73
2022-08-10T09:32:54.913Z,54.73
2022-08-10T09:36:21.606Z,54.05
2022-08-10T09:38:01.026Z,52.11
2022-08-10T09:40:59.861Z,51.79
2022-08-10T09:43:37.614Z,52.43
2022-08-10T09:46:13.026Z,50.43
2022-08-10T09:48:46.845Z,50.14
2022-08-10T09:51:47.043Z,49.89
2022-08-10T09:54:28.020Z,49.30
2022-08-10T09:57:44.906Z,48.74
2022-08-10T10:00:03.029Z,47.48
2022-08-10T10:02:39.468Z,47.53
2022-08-10T10:05:19.097Z,46.34
2022-08-10T10:07:54.880Z,45.61
2022-08-10T10:10:30.730Z,45.41
2022-08-10T10:13:05.448Z,45.74
2022-08-10T10:15:38.734Z,45.59
2022-08-10T10:18:21.157Z,45.94
2022-08-10T10:20:56.836Z,46.78
2022-08-10T10:23:38.126Z,45.97
2022-08-10T10:26:18.722Z,46.31
2022-08-10T10:31:57.685Z,44.88
2022-08-10T10:34:34.775Z,44.91
2022-08-10T10:37:07.266Z,43.80
2022-08-10T10:39:42.016Z,42.98
2022-08-10T10:42:44.360Z,43.02
2022-08-10T10:45:19.214Z,44.74
2022-08-10T10:47:56.522Z,45.21
2022-08-10T10:50:32.295Z,43.94
2022-08-10T10:53:10.120Z,44.37
2022-08-10T10:56:13.733Z,43.92
2022-08-10T10:58:39.682Z,42.42
2022-08-10T11:01:15.858Z,43.72
2022-08-10T11:04:02.261Z,43.01
2022-08-10T11:06:47.756Z,44.25
2022-08-10T11:10:05.416Z,42.43
2022-08-10T11:12:19.693Z,42.98
2022-08-10T11:15:14.265Z,41.37
2022-08-10T11:17:49.749Z,41.60
2022-08-10T11:20:25.141Z,43.47
2022-08-10T11:23:03.674Z,42.27
2022-08-10T11:25:33.994Z,40.86
2022-08-10T11:28:11.972Z,41.13
2022-08-10T11:30:45.976Z,41.08
2022-08-10T11:33:30.698Z,41.11
2022-08-10T11:36:04.997Z,39.63
2022-08-10T11:38:57.720Z,38.41
2022-08-10T11:42:07.740Z,37.10
2022-08-10T11:44:30.934Z,36.42
2022-08-10T11:47:05.820Z,36.66
2022-08-10T11:49:40.343Z,37.74
2022-08-10T11:52:14.357Z,37.41
2022-08-10T11:54:44.609Z,37.76
2022-08-10T11:57:13.915Z,37.47
2022-08-10T11:59:58.044Z,38.41
2022-08-10T12:02:32.735Z,37.99
2022-08-10T12:05:06.671Z,38.04
2022-08-10T12:10:02.209Z,38.64
2022-08-10T12:10:29.600Z,37.47
2022-08-10T12:13:05.964Z,37.31
2022-08-10T12:15:41.466Z,38.08
2022-08-10T12:18:16.332Z,37.73
2022-08-10T12:20:50.841Z,37.95
2022-08-10T12:23:25.198Z,37.34
2022-08-10T12:25:59.824Z,37.83
2022-08-10T12:28:50.860Z,37.56
2022-08-10T12:31:26.125Z,37.77
2022-08-10T12:34:06.445Z,37.96
2022-08-10T12:36:40.824Z,37.85
2022-08-10T12:39:15.999Z,38.15
2022-08-10T12:41:50.900Z,38.41
2022-08-10T12:44:42.023Z,38.14
2022-08-10T12:47:20.083Z,37.89
2022-08-10T12:50:21.638Z,37.80
2022-08-10T12:52:52.538Z,37.49
2022-08-10T12:55:22.141Z,37.49
2022-08-10T12:57:53.227Z,37.93
2022-08-10T13:00:27.837Z,37.47
2022-08-10T13:02:59.842Z,38.13
2022-08-10T13:05:28.954Z,37.67
2022-08-10T13:08:34.634Z,37.67
2022-08-10T13:12:33.774Z,37.43
2022-08-10T13:13:57.196Z,38.35
2022-08-10T13:16:25.993Z,38.64
2022-08-10T13:19:04.125Z,37.50
2022-08-10T13:21:36.913Z,38.55
2022-08-10T13:24:10.572Z,38.84
2022-08-10T13:27:09.127Z,38.42
2022-08-10T13:29:36.108Z,38.34
2022-08-10T13:32:09.818Z,37.85
2022-08-10T13:34:46.680Z,37.50
2022-08-10T13:37:17.981Z,37.82
2022-08-10T13:39:58.203Z,37.45
2022-08-10T13:42:32.307Z,35.93
2022-08-10T13:45:09.377Z,37.03
2022-08-10T13:47:48.622Z,38.07
2022-08-10T13:50:35.153Z,35.56
2022-08-10T13:53:13.899Z,36.89
2022-08-10T13:55:46.056Z,36.65
2022-08-10T13:58:25.878Z,37.05
2022-08-10T14:00:56.648Z,36.56
2022-08-10T14:03:26.802Z,36.90
2022-08-10T14:05:59.366Z,36.33
2022-08-10T14:08:30.579Z,36.11
2022-08-10T14:11:11.638Z,34.79
2022-08-10T14:13:45.023Z,34.94
2022-08-10T14:16:14.329Z,35.63
2022-08-10T14:18:45.150Z,35.40
2022-08-10T14:21:14.811Z,35.89
2022-08-10T14:23:52.076Z,35.40
2022-08-10T14:26:26.043Z,35.89
2022-08-10T14:28:57.219Z,35.44
2022-08-10T14:31:33.550Z,35.40
2022-08-10T14:34:04.740Z,32.68
2022-08-10T14:36:52.259Z,32.52
2022-08-10T14:39:23.790Z,32.76
2022-08-10T14:42:01.329Z,33.24
2022-08-10T14:44:45.933Z,34.96
2022-08-10T14:47:53.110Z,35.96
2022-08-10T14:50:07.480Z,35.43
2022-08-10T14:52:44.161Z,35.08
2022-08-10T14:55:19.474Z,33.45
2022-08-10T14:58:16.575Z,34.20
2022-08-10T15:00:43.240Z,33.48
2022-08-10T15:03:58.788Z,33.85
2022-08-10T15:06:09.250Z,35.23
2022-08-10T15:08:48.085Z,35.01
2022-08-10T15:12:11.858Z,35.39
2022-08-10T15:14:41.325Z,34.08
2022-08-10T15:16:59.508Z,33.32
2022-08-10T15:20:03.774Z,33.05
2022-08-10T15:22:37.158Z,32.02
2022-08-10T15:25:17.821Z,32.21
2022-08-10T15:27:53.829Z,32.42
2022-08-10T15:30:29.443Z,33.30
2022-08-10T15:33:21.295Z,33.41
2022-08-10T15:36:27.541Z,33.66
2022-08-10T15:39:00.388Z,34.18
2022-08-10T15:41:58.604Z,33.65
2022-08-10T15:44:38.292Z,34.02
2022-08-10T15:47:10.809Z,34.11
2022-08-10T15:49:46.242Z,33.69
2022-08-10T15:52:39.643Z,33.75
2022-08-10T15:55:41.223Z,35.30
2022-08-10T15:58:06.786Z,34.30
2022-08-10T16:00:39.126Z,33.87
2022-08-10T16:03:14.570Z,34.49
2022-08-10T16:06:01.813Z,34.33
2022-08-10T16:08:57.001Z,35.05
2022-08-10T16:11:37.860Z,34.60
2022-08-10T16:14:22.700Z,34.59
2022-08-10T16:16:55.681Z,35.86
2022-08-10T16:19:26.163Z,35.76
2022-08-10T16:21:57.934Z,34.61
2022-08-10T16:24:27.683Z,34.61
2022-08-10T16:26:56.501Z,34.50
2022-08-10T16:29:28.049Z,34.81
2022-08-10T16:31:58.223Z,35.69
2022-08-10T16:34:28.005Z,34.93
2022-08-10T16:36:58.807Z,36.62
2022-08-10T16:39:59.427Z,36.39
2022-08-10T16:42:26.134Z,35.05
2022-08-10T16:45:01.593Z,35.75
2022-08-10T16:47:31.916Z,35.45
2022-08-10T16:50:03.392Z,35.86
2022-08-10T16:52:33.530Z,34.77
2022-08-10T16:55:16.568Z,34.75
2022-08-10T16:57:55.461Z,35.21
2022-08-10T17:00:27.002Z,35.46
2022-08-10T17:02:59.209Z,35.38
2022-08-10T17:06:10.686Z,35.22
2022-08-10T17:08:21.728Z,36.44
2022-08-10T17:10:51.893Z,35.41
2022-08-10T17:13:23.746Z,35.77
2022-08-10T17:16:03.471Z,35.82
2022-08-10T17:18:38.596Z,37.14
2022-08-10T17:21:11.193Z,37.38
2022-08-10T17:23:41.245Z,37.34
2022-08-10T17:26:13.552Z,37.68
2022-08-10T17:28:55.296Z,37.82
2022-08-10T17:31:53.801Z,38.07
2022-08-10T17:34:18.756Z,38.29
2022-08-10T17:36:50.564Z,38.69
2022-08-10T17:39:23.915Z,39.45
2022-08-10T17:41:53.811Z,39.22
2022-08-10T17:44:22.930Z,38.89
2022-08-10T17:46:53.237Z,39.69
2022-08-10T17:49:21.607Z,40.07
2022-08-10T17:51:54.452Z,40.48
2022-08-10T17:54:28.271Z,40.55
2022-08-10T17:56:59.587Z,39.83
2022-08-10T17:59:29.486Z,40.77
2022-08-10T18:02:07.468Z,40.79
2022-08-10T18:04:42.154Z,41.15
2022-08-10T18:07:11.817Z,41.24
2022-08-10T18:09:44.400Z,41.74
2022-08-10T18:12:18.523Z,41.10
2022-08-10T18:14:51.014Z,41.83
2022-08-10T18:17:24.223Z,41.82
2022-08-10T18:19:54.775Z,42.03
2022-08-10T18:22:24.918Z,42.09
2022-08-10T18:24:55.165Z,42.06
2022-08-10T18:28:00.740Z,42.38
2022-08-10T18:30:14.551Z,43.19
2022-08-10T18:32:49.061Z,42.51
2022-08-10T18:35:18.393Z,43.03
2022-08-10T18:37:49.274Z,42.94
2022-08-10T18:40:18.089Z,43.45
2022-08-10T18:42:50.240Z,43.94
2022-08-10T18:45:21.996Z,44.37
2022-08-10T18:47:59.715Z,44.91
2022-08-10T18:50:31.914Z,45.48
2022-08-10T18:53:03.793Z,45.96
2022-08-10T18:55:39.663Z,45.50
2022-08-10T18:58:34.703Z,47.11
2022-08-10T19:01:14.837Z,45.59
2022-08-10T19:03:58.713Z,46.09
2022-08-10T19:06:48.243Z,46.60
2022-08-10T19:09:46.287Z,47.01
2022-08-10T19:12:40.674Z,47.59
2022-08-10T19:15:24.471Z,47.70
2022-08-10T19:18:03.009Z,48.16
2022-08-10T19:20:40.413Z,49.00
2022-08-10T19:23:26.160Z,48.80
2022-08-10T19:26:40.699Z,49.79
2022-08-10T19:28:59.686Z,50.71
2022-08-10T19:31:43.861Z,51.34
2022-08-10T19:34:24.374Z,51.63
2022-08-10T19:37:08.270Z,51.90
2022-08-10T19:39:50.837Z,52.52
2022-08-10T19:42:31.105Z,53.33
2022-08-10T19:45:07.482Z,53.98
2022-08-10T19:47:42.108Z,53.40
2022-08-10T19:50:14.934Z,54.07
2022-08-10T19:52:53.489Z,54.78
2022-08-10T19:55:30.014Z,55.85
2022-08-10T19:58:02.319Z,56.35
2022-08-10T20:00:38.476Z,56.69
2022-08-10T20:03:15.227Z,58.69
2022-08-10T20:06:19.324Z,60.49
2022-08-10T20:08:54.032Z,59.52
2022-08-10T20:11:45.611Z,60.02
2022-08-10T20:14:22.877Z,61.16
2022-08-10T20:16:53.567Z,60.63
2022-08-10T20:19:54.017Z,60.66
2022-08-10T20:22:29.260Z,63.86
2022-08-10T20:25:09.657Z,64.02
2022-08-10T20:28:00.123Z,64.78
2022-08-10T20:30:33.951Z,64.34
2022-08-10T20:33:08.468Z,65.48
2022-08-10T20:35:53.648Z,66.95
2022-08-10T20:38:27.604Z,67.23
2022-08-10T20:41:17.300Z,67.92
2022-08-10T20:43:57.433Z,68.62
2022-08-10T20:46:30.448Z,69.74
2022-08-10T20:49:02.958Z,70.50
2022-08-10T20:51:59.579Z,69.78
2022-08-10T20:54:34.433Z,69.47
2022-08-10T20:57:55.647Z,69.17
2022-08-10T21:00:14.016Z,69.51
2022-08-10T21:03:00.332Z,69.20
2022-08-10T21:05:53.936Z,70.62
2022-08-10T21:08:35.356Z,71.58
2022-08-10T21:11:09.442Z,72.13
2022-08-10T21:14:04.113Z,73.05
2022-08-10T21:16:43.048Z,74.01
2022-08-10T21:19:36.024Z,74.91
2022-08-10T21:22:12.692Z,75.81
2022-08-10T21:24:52.269Z,76.12
2022-08-10T21:27:42.405Z,76.23
2022-08-10T21:30:19.855Z,77.88
2022-08-10T21:32:59.316Z,78.43
2022-08-10T21:35:37.182Z,79.31
2022-08-10T21:38:12.936Z,79.38
2022-08-10T21:44:52.917Z,79.75
2022-08-10T21:48:17.725Z,79.29
2022-08-10T21:51:05.848Z,79.54
2022-08-10T21:53:56.954Z,79.42
2022-08-10T21:56:47.840Z,79.42
2022-08-10T21:59:48.842Z,79.84
2022-08-10T22:05:49.335Z,80.98
2022-08-10T22:08:40.530Z,81.82
2022-08-10T22:11:42.840Z,83.64
2022-08-10T22:14:33.526Z,83.92
2022-08-10T22:17:59.842Z,84.33
2022-08-10T22:20:35.401Z,84.85
2022-08-10T22:23:48.062Z,85.54
2022-08-10T22:27:00.616Z,86.20
2022-08-10T22:29:56.379Z,86.79
2022-08-10T22:31:28.639Z,79.66
2022-08-10T22:32:53.350Z,86.75
2022-08-10T22:36:20.506Z,87.52
2022-08-10T22:40:11.077Z,87.50
2022-08-10T22:42:32.740Z,87.19
2022-08-10T22:45:39.553Z,87.28
2022-08-10T22:48:25.969Z,87.28
2022-08-10T22:50:56.388Z,87.83
2022-08-10T22:53:49.594Z,87.35
2022-08-10T22:56:38.419Z,87.83
2022-08-10T22:59:08.262Z,87.54
2022-08-10T23:02:08.708Z,87.91
2022-08-10T23:04:44.312Z,88.39
2022-08-10T23:07:21.145Z,88.92
2022-08-10T23:09:57.473Z,89.49
2022-08-10T23:12:34.224Z,89.65
2022-08-10T23:15:21.589Z,90.77
2022-08-10T23:18:10.553Z,90.95
2022-08-10T23:20:40.773Z,90.97
2022-08-10T23:23:23.948Z,91.42
2022-08-10T23:25:56.517Z,90.62
2022-08-10T23:28:58.089Z,90.03
2022-08-10T23:32:01.340Z,90.49
2022-08-10T23:34:08.384Z,91.10
2022-08-10T23:36:40.093Z,91.94
2022-08-10T23:39:25.577Z,93.74
2022-08-10T23:42:06.960Z,94.54
2022-08-10T23:44:44.029Z,95.25
2022-08-10T23:47:14.729Z,95.89
2022-08-10T23:49:43.943Z,96.44
2022-08-10T23:52:16.540Z,96.79
2022-08-10T23:54:47.736Z,97.08
2022-08-10T23:57:19.366Z,97.20
2022-08-10T23:59:54.738Z,96.86
